Terminal Aerodrome Forecast
Issued by NWS Sterling, VA

Home | Current Version | Previous Version | Text Only | Print | Product List | Glossary On
Versions: 1 2 3 4 5 6 7 8 9 10 11 12
000
FTUS41 KLWX 221100
TAFMRB
TAF
KMRB 221140Z 2212/2312 00000KT P6SM BKN040
     FM221700 09004KT P6SM BKN025 BKN040
     FM222200 00000KT P6SM SCT015 OVC025
     FM230000 00000KT P6SM OVC015
     FM230500 VRB03KT 3SM BR OVC008=

USA.gov is the U.S. government's official web portal to all federal, state and local government web resources and services.